sensor_id;sensor_type;location;lat;lon;timestamp;pressure;altitude;pressure_sealevel;temperature;humidity
38289;BME280;24092;53.370;-6.588;2022-10-16T00:00:43;99302.78;;;2.49;100.00
38289;BME280;24092;53.370;-6.588;2022-10-16T00:03:11;99299.38;;;2.50;100.00
38289;BME280;24092;53.370;-6.588;2022-10-16T00:05:40;99306.64;;;2.23;100.00
38289;BME280;24092;53.370;-6.588;2022-10-16T00:08:10;99311.31;;;1.92;100.00
38289;BME280;24092;53.370;-6.588;2022-10-16T00:10:38;99315.34;;;2.09;100.00
38289;BME280;24092;53.370;-6.588;2022-10-16T00:13:06;99324.35;;;2.41;100.00
38289;BME280;24092;53.370;-6.588;2022-10-16T00:15:35;99326.07;;;2.43;100.00
38289;BME280;24092;53.370;-6.588;2022-10-16T00:18:03;99330.55;;;2.22;100.00
38289;BME280;24092;53.370;-6.588;2022-10-16T00:20:33;99332.28;;;2.03;100.00
38289;BME280;24092;53.370;-6.588;2022-10-16T00:23:00;99331.74;;;2.08;100.00
38289;BME280;24092;53.370;-6.588;2022-10-16T00:25:27;99332.47;;;2.52;100.00
38289;BME280;24092;53.370;-6.588;2022-10-16T00:27:54;99332.76;;;1.59;100.00
38289;BME280;24092;53.370;-6.588;2022-10-16T00:30:21;99336.21;;;1.95;100.00
38289;BME280;24092;53.370;-6.588;2022-10-16T00:32:48;99346.63;;;1.82;100.00
38289;BME280;24092;53.370;-6.588;2022-10-16T00:35:16;99353.62;;;1.52;100.00
38289;BME280;24092;53.370;-6.588;2022-10-16T00:37:43;99357.65;;;1.66;100.00
38289;BME280;24092;53.370;-6.588;2022-10-16T00:40:10;99361.40;;;1.68;100.00
38289;BME280;24092;53.370;-6.588;2022-10-16T00:42:38;99369.89;;;1.39;100.00
38289;BME280;24092;53.370;-6.588;2022-10-16T00:45:06;99382.51;;;1.12;100.00
38289;BME280;24092;53.370;-6.588;2022-10-16T00:47:38;99386.82;;;1.49;100.00
38289;BME280;24092;53.370;-6.588;2022-10-16T00:50:08;99389.98;;;1.56;100.00
38289;BME280;24092;53.370;-6.588;2022-10-16T00:52:37;99390.47;;;1.24;100.00
38289;BME280;24092;53.370;-6.588;2022-10-16T00:55:06;99394.54;;;1.01;100.00
38289;BME280;24092;53.370;-6.588;2022-10-16T00:57:35;99390.19;;;1.73;100.00
38289;BME280;24092;53.370;-6.588;2022-10-16T01:00:05;99387.24;;;1.26;100.00
38289;BME280;24092;53.370;-6.588;2022-10-16T01:02:33;99387.64;;;1.47;100.00
38289;BME280;24092;53.370;-6.588;2022-10-16T01:05:02;99395.83;;;1.31;100.00
38289;BME280;24092;53.370;-6.588;2022-10-16T01:07:39;99398.84;;;1.47;100.00
38289;BME280;24092;53.370;-6.588;2022-10-16T01:10:22;99404.74;;;1.29;100.00
38289;BME280;24092;53.370;-6.588;2022-10-16T01:12:55;99404.40;;;1.52;100.00
38289;BME280;24092;53.370;-6.588;2022-10-16T01:15:27;99406.81;;;1.18;100.00
38289;BME280;24092;53.370;-6.588;2022-10-16T01:18:00;99401.89;;;0.96;100.00
38289;BME280;24092;53.370;-6.588;2022-10-16T01:20:30;99409.21;;;1.24;100.00
38289;BME280;24092;53.370;-6.588;2022-10-16T01:23:06;99407.01;;;1.16;100.00
38289;BME280;24092;53.370;-6.588;2022-10-16T01:25:49;99413.63;;;1.53;100.00
38289;BME280;24092;53.370;-6.588;2022-10-16T01:28:23;99412.00;;;1.31;100.00
38289;BME280;24092;53.370;-6.588;2022-10-16T01:30:55;99414.75;;;1.04;100.00
38289;BME280;24092;53.370;-6.588;2022-10-16T01:33:28;99423.01;;;0.94;100.00
38289;BME280;24092;53.370;-6.588;2022-10-16T01:36:02;99430.22;;;1.18;100.00
38289;BME280;24092;53.370;-6.588;2022-10-16T01:38:34;99436.56;;;1.24;100.00
38289;BME280;24092;53.370;-6.588;2022-10-16T01:41:07;99444.45;;;1.54;100.00
38289;BME280;24092;53.370;-6.588;2022-10-16T01:43:38;99456.40;;;1.28;100.00
38289;BME280;24092;53.370;-6.588;2022-10-16T01:46:08;99467.04;;;1.43;100.00
38289;BME280;24092;53.370;-6.588;2022-10-16T01:48:36;99469.91;;;1.09;100.00
38289;BME280;24092;53.370;-6.588;2022-10-16T01:51:07;99476.36;;;1.25;100.00
38289;BME280;24092;53.370;-6.588;2022-10-16T01:53:36;99479.74;;;1.30;100.00
38289;BME280;24092;53.370;-6.588;2022-10-16T01:56:08;99481.41;;;1.33;100.00
38289;BME280;24092;53.370;-6.588;2022-10-16T01:58:40;99481.37;;;1.51;100.00
38289;BME280;24092;53.370;-6.588;2022-10-16T02:01:10;99488.36;;;0.99;100.00
38289;BME280;24092;53.370;-6.588;2022-10-16T02:03:41;99485.67;;;1.03;100.00
38289;BME280;24092;53.370;-6.588;2022-10-16T02:06:09;99490.00;;;1.12;100.00
38289;BME280;24092;53.370;-6.588;2022-10-16T02:08:36;99496.17;;;1.25;100.00
38289;BME280;24092;53.370;-6.588;2022-10-16T02:11:04;99495.46;;;1.48;100.00
38289;BME280;24092;53.370;-6.588;2022-10-16T02:13:35;99501.52;;;1.32;100.00
38289;BME280;24092;53.370;-6.588;2022-10-16T02:16:05;99507.22;;;1.29;100.00
38289;BME280;24092;53.370;-6.588;2022-10-16T02:18:33;99518.17;;;1.32;100.00
38289;BME280;24092;53.370;-6.588;2022-10-16T02:21:04;99518.36;;;1.52;100.00
38289;BME280;24092;53.370;-6.588;2022-10-16T02:23:40;99516.76;;;1.51;100.00
38289;BME280;24092;53.370;-6.588;2022-10-16T02:26:13;99512.29;;;1.13;100.00
38289;BME280;24092;53.370;-6.588;2022-10-16T02:28:46;99515.66;;;1.02;100.00
38289;BME280;24092;53.370;-6.588;2022-10-16T02:31:20;99520.86;;;0.85;100.00
38289;BME280;24092;53.370;-6.588;2022-10-16T02:33:51;99526.91;;;1.36;100.00
38289;BME280;24092;53.370;-6.588;2022-10-16T02:36:19;99531.55;;;1.19;100.00
38289;BME280;24092;53.370;-6.588;2022-10-16T02:38:47;99540.96;;;1.45;100.00
38289;BME280;24092;53.370;-6.588;2022-10-16T02:41:15;99547.37;;;1.26;100.00
38289;BME280;24092;53.370;-6.588;2022-10-16T02:43:42;99552.61;;;1.43;100.00
38289;BME280;24092;53.370;-6.588;2022-10-16T02:46:10;99555.94;;;1.32;100.00
38289;BME280;24092;53.370;-6.588;2022-10-16T02:48:37;99554.20;;;1.04;100.00
38289;BME280;24092;53.370;-6.588;2022-10-16T02:51:04;99557.47;;;1.27;100.00
38289;BME280;24092;53.370;-6.588;2022-10-16T02:53:31;99561.94;;;0.57;100.00
38289;BME280;24092;53.370;-6.588;2022-10-16T02:55:59;99565.59;;;1.43;100.00
38289;BME280;24092;53.370;-6.588;2022-10-16T02:58:26;99563.96;;;1.07;100.00
38289;BME280;24092;53.370;-6.588;2022-10-16T03:00:54;99566.96;;;0.89;100.00
38289;BME280;24092;53.370;-6.588;2022-10-16T03:03:21;99567.22;;;1.24;100.00
38289;BME280;24092;53.370;-6.588;2022-10-16T03:05:48;99569.60;;;1.09;100.00
38289;BME280;24092;53.370;-6.588;2022-10-16T03:08:16;99575.48;;;0.86;100.00
38289;BME280;24092;53.370;-6.588;2022-10-16T03:10:42;99576.44;;;1.20;100.00
38289;BME280;24092;53.370;-6.588;2022-10-16T03:13:09;99581.03;;;0.63;100.00
38289;BME280;24092;53.370;-6.588;2022-10-16T03:15:37;99587.21;;;0.58;100.00
38289;BME280;24092;53.370;-6.588;2022-10-16T03:18:04;99588.86;;;1.10;100.00
38289;BME280;24092;53.370;-6.588;2022-10-16T03:20:31;99596.71;;;0.82;100.00
38289;BME280;24092;53.370;-6.588;2022-10-16T03:22:58;99601.37;;;0.75;100.00
38289;BME280;24092;53.370;-6.588;2022-10-16T03:25:25;99606.08;;;0.74;100.00
38289;BME280;24092;53.370;-6.588;2022-10-16T03:27:52;99604.79;;;1.06;100.00
38289;BME280;24092;53.370;-6.588;2022-10-16T03:30:19;99607.02;;;0.33;100.00
38289;BME280;24092;53.370;-6.588;2022-10-16T03:32:47;99601.73;;;0.68;100.00
38289;BME280;24092;53.370;-6.588;2022-10-16T03:35:14;99601.63;;;0.53;100.00
38289;BME280;24092;53.370;-6.588;2022-10-16T03:37:41;99614.64;;;0.68;100.00
38289;BME280;24092;53.370;-6.588;2022-10-16T03:40:09;99614.30;;;-0.02;100.00
38289;BME280;24092;53.370;-6.588;2022-10-16T03:42:36;99612.67;;;0.49;100.00
38289;BME280;24092;53.370;-6.588;2022-10-16T03:45:04;99623.72;;;0.38;100.00
38289;BME280;24092;53.370;-6.588;2022-10-16T03:47:32;99630.16;;;0.71;100.00
38289;BME280;24092;53.370;-6.588;2022-10-16T03:49:59;99637.79;;;0.99;100.00
38289;BME280;24092;53.370;-6.588;2022-10-16T03:52:26;99641.76;;;0.46;100.00
38289;BME280;24092;53.370;-6.588;2022-10-16T03:54:53;99648.38;;;0.56;100.00
38289;BME280;24092;53.370;-6.588;2022-10-16T03:57:20;99646.21;;;1.14;100.00
38289;BME280;24092;53.370;-6.588;2022-10-16T03:59:47;99653.72;;;0.84;100.00
38289;BME280;24092;53.370;-6.588;2022-10-16T04:02:15;99664.56;;;0.74;100.00
38289;BME280;24092;53.370;-6.588;2022-10-16T04:04:42;99676.28;;;0.45;100.00
38289;BME280;24092;53.370;-6.588;2022-10-16T04:07:09;99682.13;;;0.75;100.00
38289;BME280;24092;53.370;-6.588;2022-10-16T04:09:36;99690.76;;;0.62;100.00
38289;BME280;24092;53.370;-6.588;2022-10-16T04:12:03;99688.78;;;0.46;100.00
38289;BME280;24092;53.370;-6.588;2022-10-16T04:14:30;99693.81;;;0.54;100.00
38289;BME280;24092;53.370;-6.588;2022-10-16T04:16:57;99699.03;;;0.65;100.00
38289;BME280;24092;53.370;-6.588;2022-10-16T04:19:24;99703.94;;;0.78;100.00
38289;BME280;24092;53.370;-6.588;2022-10-16T04:21:52;99716.13;;;0.56;100.00
38289;BME280;24092;53.370;-6.588;2022-10-16T04:24:19;99722.48;;;0.44;100.00
38289;BME280;24092;53.370;-6.588;2022-10-16T04:26:46;99729.18;;;0.81;100.00
38289;BME280;24092;53.370;-6.588;2022-10-16T04:29:13;99734.83;;;0.46;100.00
38289;BME280;24092;53.370;-6.588;2022-10-16T04:31:40;99745.93;;;0.81;100.00
38289;BME280;24092;53.370;-6.588;2022-10-16T04:34:07;99755.32;;;0.77;100.00
38289;BME280;24092;53.370;-6.588;2022-10-16T04:36:34;99765.96;;;0.42;100.00
38289;BME280;24092;53.370;-6.588;2022-10-16T04:39:01;99772.67;;;0.33;100.00
38289;BME280;24092;53.370;-6.588;2022-10-16T04:41:28;99778.81;;;0.53;100.00
38289;BME280;24092;53.370;-6.588;2022-10-16T04:43:55;99782.40;;;0.20;100.00
38289;BME280;24092;53.370;-6.588;2022-10-16T04:46:23;99791.59;;;0.94;100.00
38289;BME280;24092;53.370;-6.588;2022-10-16T04:48:50;99792.36;;;0.36;100.00
38289;BME280;24092;53.370;-6.588;2022-10-16T04:51:17;99792.01;;;0.82;100.00
38289;BME280;24092;53.370;-6.588;2022-10-16T04:53:44;99798.48;;;0.88;100.00
38289;BME280;24092;53.370;-6.588;2022-10-16T04:56:11;99806.46;;;0.54;100.00
38289;BME280;24092;53.370;-6.588;2022-10-16T04:58:38;99815.45;;;0.69;100.00
38289;BME280;24092;53.370;-6.588;2022-10-16T05:01:05;99814.66;;;0.83;100.00
38289;BME280;24092;53.370;-6.588;2022-10-16T05:03:33;99812.47;;;1.14;100.00
38289;BME280;24092;53.370;-6.588;2022-10-16T05:06:01;99812.50;;;0.86;100.00
38289;BME280;24092;53.370;-6.588;2022-10-16T05:08:28;99812.39;;;0.92;100.00
38289;BME280;24092;53.370;-6.588;2022-10-16T05:10:55;99811.17;;;1.51;100.00
38289;BME280;24092;53.370;-6.588;2022-10-16T05:13:22;99806.63;;;0.96;100.00
38289;BME280;24092;53.370;-6.588;2022-10-16T05:15:49;99804.84;;;0.54;100.00
38289;BME280;24092;53.370;-6.588;2022-10-16T05:18:21;99805.09;;;1.09;100.00
38289;BME280;24092;53.370;-6.588;2022-10-16T05:20:48;99806.92;;;1.14;100.00
38289;BME280;24092;53.370;-6.588;2022-10-16T05:23:16;99810.51;;;0.42;100.00
38289;BME280;24092;53.370;-6.588;2022-10-16T05:25:43;99817.37;;;0.81;100.00
38289;BME280;24092;53.370;-6.588;2022-10-16T05:28:10;99817.33;;;0.91;100.00
38289;BME280;24092;53.370;-6.588;2022-10-16T05:30:37;99823.27;;;1.20;100.00
38289;BME280;24092;53.370;-6.588;2022-10-16T05:33:04;99833.97;;;0.82;100.00
38289;BME280;24092;53.370;-6.588;2022-10-16T05:35:31;99840.10;;;0.52;100.00
38289;BME280;24092;53.370;-6.588;2022-10-16T05:37:58;99841.20;;;0.28;100.00
38289;BME280;24092;53.370;-6.588;2022-10-16T05:40:25;99846.24;;;0.47;100.00
38289;BME280;24092;53.370;-6.588;2022-10-16T05:42:55;99851.26;;;0.27;100.00
38289;BME280;24092;53.370;-6.588;2022-10-16T05:45:22;99854.56;;;0.54;100.00
38289;BME280;24092;53.370;-6.588;2022-10-16T05:47:49;99859.71;;;1.11;100.00
38289;BME280;24092;53.370;-6.588;2022-10-16T05:50:16;99864.00;;;0.41;100.00
38289;BME280;24092;53.370;-6.588;2022-10-16T05:52:43;99870.04;;;0.59;100.00
38289;BME280;24092;53.370;-6.588;2022-10-16T05:55:11;99872.45;;;0.84;100.00
38289;BME280;24092;53.370;-6.588;2022-10-16T05:57:37;99880.61;;;0.63;100.00
38289;BME280;24092;53.370;-6.588;2022-10-16T06:00:06;99884.62;;;0.79;100.00
38289;BME280;24092;53.370;-6.588;2022-10-16T06:02:33;99887.60;;;0.60;100.00
38289;BME280;24092;53.370;-6.588;2022-10-16T06:05:00;99888.43;;;0.65;100.00
38289;BME280;24092;53.370;-6.588;2022-10-16T06:07:27;99888.42;;;0.78;100.00
38289;BME280;24092;53.370;-6.588;2022-10-16T06:09:54;99890.43;;;0.57;100.00
38289;BME280;24092;53.370;-6.588;2022-10-16T06:12:21;99889.70;;;0.61;100.00
38289;BME280;24092;53.370;-6.588;2022-10-16T06:14:48;99893.71;;;0.64;100.00
38289;BME280;24092;53.370;-6.588;2022-10-16T06:17:16;99896.93;;;0.53;100.00
38289;BME280;24092;53.370;-6.588;2022-10-16T06:19:43;99893.47;;;0.45;100.00
38289;BME280;24092;53.370;-6.588;2022-10-16T06:22:10;99892.08;;;0.70;100.00
38289;BME280;24092;53.370;-6.588;2022-10-16T06:24:37;99893.41;;;0.24;100.00
38289;BME280;24092;53.370;-6.588;2022-10-16T06:27:04;99892.99;;;0.74;100.00
38289;BME280;24092;53.370;-6.588;2022-10-16T06:29:31;99893.71;;;0.72;100.00
38289;BME280;24092;53.370;-6.588;2022-10-16T06:31:59;99896.44;;;0.92;100.00
38289;BME280;24092;53.370;-6.588;2022-10-16T06:34:26;99899.75;;;0.18;100.00
38289;BME280;24092;53.370;-6.588;2022-10-16T06:36:53;99900.08;;;0.88;100.00
38289;BME280;24092;53.370;-6.588;2022-10-16T06:39:21;99906.78;;;0.68;100.00
38289;BME280;24092;53.370;-6.588;2022-10-16T06:41:48;99913.86;;;0.66;100.00
38289;BME280;24092;53.370;-6.588;2022-10-16T06:44:15;99911.95;;;0.36;100.00
38289;BME280;24092;53.370;-6.588;2022-10-16T06:46:42;99912.18;;;0.50;100.00
38289;BME280;24092;53.370;-6.588;2022-10-16T06:49:09;99907.87;;;0.22;100.00
38289;BME280;24092;53.370;-6.588;2022-10-16T06:51:36;99911.59;;;0.91;100.00
38289;BME280;24092;53.370;-6.588;2022-10-16T06:54:04;99913.00;;;0.52;100.00
38289;BME280;24092;53.370;-6.588;2022-10-16T06:56:32;99916.15;;;1.32;100.00
38289;BME280;24092;53.370;-6.588;2022-10-16T06:59:00;99916.30;;;0.84;100.00
38289;BME280;24092;53.370;-6.588;2022-10-16T07:01:28;99915.45;;;1.18;100.00
38289;BME280;24092;53.370;-6.588;2022-10-16T07:03:56;99912.91;;;1.12;100.00
38289;BME280;24092;53.370;-6.588;2022-10-16T07:06:25;99913.57;;;1.57;100.00
38289;BME280;24092;53.370;-6.588;2022-10-16T07:08:52;99916.91;;;1.62;100.00
38289;BME280;24092;53.370;-6.588;2022-10-16T07:11:22;99911.80;;;1.32;100.00
38289;BME280;24092;53.370;-6.588;2022-10-16T07:13:50;99909.27;;;2.02;100.00
38289;BME280;24092;53.370;-6.588;2022-10-16T07:16:19;99905.49;;;2.17;100.00
38289;BME280;24092;53.370;-6.588;2022-10-16T07:18:47;99911.50;;;1.98;100.00
38289;BME280;24092;53.370;-6.588;2022-10-16T07:21:16;99914.49;;;1.75;100.00
38289;BME280;24092;53.370;-6.588;2022-10-16T07:23:43;99921.63;;;1.61;100.00
38289;BME280;24092;53.370;-6.588;2022-10-16T07:26:11;99924.61;;;1.51;100.00
38289;BME280;24092;53.370;-6.588;2022-10-16T07:28:38;99938.41;;;1.33;100.00
38289;BME280;24092;53.370;-6.588;2022-10-16T07:31:07;99948.39;;;0.64;100.00
38289;BME280;24092;53.370;-6.588;2022-10-16T07:33:35;99948.91;;;1.09;100.00
38289;BME280;24092;53.370;-6.588;2022-10-16T07:36:03;99948.17;;;1.20;100.00
38289;BME280;24092;53.370;-6.588;2022-10-16T07:38:30;99952.66;;;1.78;100.00
38289;BME280;24092;53.370;-6.588;2022-10-16T07:40:58;99960.19;;;1.66;100.00
38289;BME280;24092;53.370;-6.588;2022-10-16T07:43:26;99970.37;;;1.94;100.00
38289;BME280;24092;53.370;-6.588;2022-10-16T07:45:54;99984.86;;;2.02;100.00
38289;BME280;24092;53.370;-6.588;2022-10-16T07:48:23;99997.10;;;2.46;100.00
38289;BME280;24092;53.370;-6.588;2022-10-16T07:50:50;100002.34;;;2.01;100.00
38289;BME280;24092;53.370;-6.588;2022-10-16T07:53:18;100009.24;;;1.35;100.00
38289;BME280;24092;53.370;-6.588;2022-10-16T07:55:45;100017.34;;;1.27;100.00
38289;BME280;24092;53.370;-6.588;2022-10-16T07:58:12;100029.65;;;1.38;100.00
38289;BME280;24092;53.370;-6.588;2022-10-16T08:00:39;100037.74;;;1.11;100.00
38289;BME280;24092;53.370;-6.588;2022-10-16T08:03:07;100044.80;;;1.83;100.00
38289;BME280;24092;53.370;-6.588;2022-10-16T08:05:34;100047.65;;;1.89;100.00
38289;BME280;24092;53.370;-6.588;2022-10-16T08:08:01;100048.14;;;2.94;100.00
38289;BME280;24092;53.370;-6.588;2022-10-16T08:10:29;100050.84;;;3.05;100.00
38289;BME280;24092;53.370;-6.588;2022-10-16T08:12:57;100048.03;;;3.05;100.00
38289;BME280;24092;53.370;-6.588;2022-10-16T08:15:25;100049.19;;;2.85;100.00
38289;BME280;24092;53.370;-6.588;2022-10-16T08:17:56;100045.65;;;3.52;100.00
38289;BME280;24092;53.370;-6.588;2022-10-16T08:20:25;100048.22;;;3.73;100.00
38289;BME280;24092;53.370;-6.588;2022-10-16T08:22:52;100052.78;;;3.96;100.00
38289;BME280;24092;53.370;-6.588;2022-10-16T08:25:19;100054.99;;;3.49;100.00
38289;BME280;24092;53.370;-6.588;2022-10-16T08:27:47;100044.50;;;4.45;100.00
38289;BME280;24092;53.370;-6.588;2022-10-16T08:30:15;100037.58;;;4.53;100.00
38289;BME280;24092;53.370;-6.588;2022-10-16T08:32:43;100032.62;;;4.59;100.00
38289;BME280;24092;53.370;-6.588;2022-10-16T08:35:11;100033.51;;;4.64;100.00
38289;BME280;24092;53.370;-6.588;2022-10-16T08:37:39;100037.18;;;4.68;100.00
38289;BME280;24092;53.370;-6.588;2022-10-16T08:40:15;100046.87;;;4.84;100.00
38289;BME280;24092;53.370;-6.588;2022-10-16T08:42:54;100058.75;;;4.69;100.00
38289;BME280;24092;53.370;-6.588;2022-10-16T08:45:34;100070.23;;;4.81;100.00
38289;BME280;24092;53.370;-6.588;2022-10-16T08:48:15;100075.27;;;5.03;100.00
38289;BME280;24092;53.370;-6.588;2022-10-16T08:50:43;100081.35;;;4.97;100.00
38289;BME280;24092;53.370;-6.588;2022-10-16T08:53:15;100085.10;;;5.28;100.00
38289;BME280;24092;53.370;-6.588;2022-10-16T08:55:46;100085.21;;;4.72;100.00
38289;BME280;24092;53.370;-6.588;2022-10-16T08:58:17;100078.26;;;4.82;100.00
38289;BME280;24092;53.370;-6.588;2022-10-16T09:00:47;100075.35;;;5.19;100.00
38289;BME280;24092;53.370;-6.588;2022-10-16T09:03:24;100078.36;;;5.27;100.00
38289;BME280;24092;53.370;-6.588;2022-10-16T09:06:12;100083.30;;;5.15;100.00
38289;BME280;24092;53.370;-6.588;2022-10-16T09:08:51;100088.25;;;5.23;100.00
38289;BME280;24092;53.370;-6.588;2022-10-16T09:11:25;100094.15;;;4.86;100.00
38289;BME280;24092;53.370;-6.588;2022-10-16T09:14:03;100103.45;;;5.04;100.00
38289;BME280;24092;53.370;-6.588;2022-10-16T09:16:33;100110.77;;;4.38;100.00
38289;BME280;24092;53.370;-6.588;2022-10-16T09:19:05;100119.49;;;4.77;100.00
38289;BME280;24092;53.370;-6.588;2022-10-16T09:21:40;100117.35;;;4.85;100.00
38289;BME280;24092;53.370;-6.588;2022-10-16T09:24:13;100114.88;;;4.53;100.00
38289;BME280;24092;53.370;-6.588;2022-10-16T09:26:40;100114.32;;;4.79;100.00
38289;BME280;24092;53.370;-6.588;2022-10-16T09:29:10;100111.04;;;4.42;100.00
38289;BME280;24092;53.370;-6.588;2022-10-16T09:31:38;100117.36;;;4.62;100.00
38289;BME280;24092;53.370;-6.588;2022-10-16T09:34:08;100126.62;;;5.22;100.00
38289;BME280;24092;53.370;-6.588;2022-10-16T09:36:43;100130.76;;;5.30;100.00
38289;BME280;24092;53.370;-6.588;2022-10-16T09:39:11;100128.47;;;5.79;100.00
38289;BME280;24092;53.370;-6.588;2022-10-16T09:41:40;100122.83;;;5.14;100.00
38289;BME280;24092;53.370;-6.588;2022-10-16T09:44:19;100121.34;;;5.45;100.00
38289;BME280;24092;53.370;-6.588;2022-10-16T09:46:48;100114.49;;;6.23;100.00
38289;BME280;24092;53.370;-6.588;2022-10-16T09:49:21;100111.90;;;5.99;100.00
38289;BME280;24092;53.370;-6.588;2022-10-16T09:51:49;100104.57;;;6.13;100.00
38289;BME280;24092;53.370;-6.588;2022-10-16T09:54:18;100102.19;;;6.06;100.00
38289;BME280;24092;53.370;-6.588;2022-10-16T09:56:46;100105.75;;;6.16;100.00
38289;BME280;24092;53.370;-6.588;2022-10-16T09:59:15;100112.22;;;6.39;100.00
38289;BME280;24092;53.370;-6.588;2022-10-16T10:01:46;100119.77;;;6.12;100.00
38289;BME280;24092;53.370;-6.588;2022-10-16T10:04:15;100126.07;;;5.88;100.00
38289;BME280;24092;53.370;-6.588;2022-10-16T10:06:45;100127.05;;;5.98;100.00
38289;BME280;24092;53.370;-6.588;2022-10-16T10:09:18;100129.57;;;5.92;100.00
38289;BME280;24092;53.370;-6.588;2022-10-16T10:11:51;100130.66;;;6.81;100.00
38289;BME280;24092;53.370;-6.588;2022-10-16T10:14:22;100125.50;;;6.14;100.00
38289;BME280;24092;53.370;-6.588;2022-10-16T10:16:52;100117.57;;;7.05;100.00
38289;BME280;24092;53.370;-6.588;2022-10-16T10:19:21;100102.69;;;6.35;100.00
38289;BME280;24092;53.370;-6.588;2022-10-16T10:21:50;100094.60;;;6.54;100.00
38289;BME280;24092;53.370;-6.588;2022-10-16T10:24:19;100094.95;;;6.68;100.00
38289;BME280;24092;53.370;-6.588;2022-10-16T10:26:53;100104.24;;;6.35;100.00
38289;BME280;24092;53.370;-6.588;2022-10-16T10:29:31;100106.92;;;7.10;100.00
38289;BME280;24092;53.370;-6.588;2022-10-16T10:32:09;100101.82;;;7.18;100.00
38289;BME280;24092;53.370;-6.588;2022-10-16T10:34:51;100092.55;;;7.59;100.00
38289;BME280;24092;53.370;-6.588;2022-10-16T10:37:35;100083.16;;;7.59;100.00
38289;BME280;24092;53.370;-6.588;2022-10-16T10:40:11;100084.32;;;7.39;100.00
38289;BME280;24092;53.370;-6.588;2022-10-16T10:42:47;100092.95;;;7.74;100.00
38289;BME280;24092;53.370;-6.588;2022-10-16T10:45:26;100101.45;;;7.95;100.00
38289;BME280;24092;53.370;-6.588;2022-10-16T10:48:02;100102.21;;;7.88;100.00
38289;BME280;24092;53.370;-6.588;2022-10-16T10:50:36;100113.93;;;7.80;100.00
38289;BME280;24092;53.370;-6.588;2022-10-16T10:53:14;100114.80;;;7.54;100.00
38289;BME280;24092;53.370;-6.588;2022-10-16T10:55:48;100119.23;;;8.19;100.00
38289;BME280;24092;53.370;-6.588;2022-10-16T10:58:34;100128.44;;;8.07;100.00
38289;BME280;24092;53.370;-6.588;2022-10-16T11:01:09;100141.81;;;8.73;100.00
38289;BME280;24092;53.370;-6.588;2022-10-16T11:03:57;100140.14;;;8.28;100.00
38289;BME280;24092;53.370;-6.588;2022-10-16T11:06:29;100139.12;;;7.99;100.00
38289;BME280;24092;53.370;-6.588;2022-10-16T11:09:02;100138.30;;;7.87;100.00
38289;BME280;24092;53.370;-6.588;2022-10-16T11:11:37;100144.81;;;8.18;100.00
38289;BME280;24092;53.370;-6.588;2022-10-16T11:14:14;100148.21;;;8.49;100.00
38289;BME280;24092;53.370;-6.588;2022-10-16T11:16:48;100153.67;;;8.21;100.00
38289;BME280;24092;53.370;-6.588;2022-10-16T11:19:26;100151.84;;;8.02;100.00
38289;BME280;24092;53.370;-6.588;2022-10-16T11:22:01;100152.50;;;5.59;100.00
38289;BME280;24092;53.370;-6.588;2022-10-16T11:24:37;100150.25;;;5.35;100.00
38289;BME280;24092;53.370;-6.588;2022-10-16T11:27:12;100147.12;;;6.36;100.00
38289;BME280;24092;53.370;-6.588;2022-10-16T11:29:57;100141.35;;;5.31;100.00
38289;BME280;24092;53.370;-6.588;2022-10-16T11:32:32;100134.59;;;6.52;100.00
38289;BME280;24092;53.370;-6.588;2022-10-16T11:35:08;100126.32;;;6.23;100.00
38289;BME280;24092;53.370;-6.588;2022-10-16T11:37:41;100124.58;;;4.82;100.00
38289;BME280;24092;53.370;-6.588;2022-10-16T11:40:20;100121.16;;;5.46;100.00
38289;BME280;24092;53.370;-6.588;2022-10-16T11:42:54;100116.25;;;6.81;100.00
38289;BME280;24092;53.370;-6.588;2022-10-16T11:45:33;100121.19;;;7.47;100.00
38289;BME280;24092;53.370;-6.588;2022-10-16T11:48:15;100118.36;;;8.33;100.00
38289;BME280;24092;53.370;-6.588;2022-10-16T11:50:51;100115.38;;;8.41;100.00
38289;BME280;24092;53.370;-6.588;2022-10-16T11:53:26;100106.12;;;8.90;100.00
38289;BME280;24092;53.370;-6.588;2022-10-16T11:55:57;100108.85;;;9.07;100.00
38289;BME280;24092;53.370;-6.588;2022-10-16T11:58:27;100113.23;;;8.51;100.00
38289;BME280;24092;53.370;-6.588;2022-10-16T12:01:01;100115.48;;;8.12;100.00
38289;BME280;24092;53.370;-6.588;2022-10-16T12:03:36;100104.27;;;6.59;100.00
38289;BME280;24092;53.370;-6.588;2022-10-16T12:06:18;100092.40;;;5.76;100.00
38289;BME280;24092;53.370;-6.588;2022-10-16T12:08:50;100089.82;;;6.90;100.00
38289;BME280;24092;53.370;-6.588;2022-10-16T12:11:31;100086.48;;;7.49;100.00
38289;BME280;24092;53.370;-6.588;2022-10-16T12:14:19;100091.31;;;8.28;100.00
38289;BME280;24092;53.370;-6.588;2022-10-16T12:16:56;100089.38;;;8.62;100.00
38289;BME280;24092;53.370;-6.588;2022-10-16T12:19:25;100085.12;;;5.11;100.00
38289;BME280;24092;53.370;-6.588;2022-10-16T12:21:56;100079.14;;;4.29;100.00
38289;BME280;24092;53.370;-6.588;2022-10-16T12:24:42;100073.51;;;3.82;100.00
38289;BME280;24092;53.370;-6.588;2022-10-16T12:27:24;100077.03;;;3.82;100.00
38289;BME280;24092;53.370;-6.588;2022-10-16T12:29:57;100073.15;;;4.00;100.00
38289;BME280;24092;53.370;-6.588;2022-10-16T12:32:30;100071.15;;;5.04;100.00
38289;BME280;24092;53.370;-6.588;2022-10-16T12:34:59;100070.23;;;7.17;100.00
38289;BME280;24092;53.370;-6.588;2022-10-16T12:37:31;100078.73;;;7.63;100.00
38289;BME280;24092;53.370;-6.588;2022-10-16T12:39:59;100085.59;;;8.61;100.00
38289;BME280;24092;53.370;-6.588;2022-10-16T12:42:37;100091.51;;;8.58;100.00
38289;BME280;24092;53.370;-6.588;2022-10-16T12:45:24;100086.09;;;8.84;100.00
38289;BME280;24092;53.370;-6.588;2022-10-16T12:47:53;100081.38;;;8.45;100.00
38289;BME280;24092;53.370;-6.588;2022-10-16T12:50:27;100077.84;;;9.02;100.00
38289;BME280;24092;53.370;-6.588;2022-10-16T12:52:55;100070.72;;;8.87;100.00
38289;BME280;24092;53.370;-6.588;2022-10-16T12:55:23;100064.51;;;8.48;100.00
38289;BME280;24092;53.370;-6.588;2022-10-16T12:58:06;100056.40;;;8.93;100.00
38289;BME280;24092;53.370;-6.588;2022-10-16T13:00:43;100061.43;;;8.27;100.00